Time;durP1;ratioP1;P1;durP2;ratioP2;P2;SDS_P1;SDS_P2;PMS_P1;PMS_P2;Temp;Humidity;BMP_temperature;BMP_pressure;BME280_temperature;BME280_humidity;BME280_pressure;Samples;Min_cycle;Max_cycle;Signal;HPM_P1;HPM_P2
2023/05/26 00:01:10;;;;;;;22.07;14.33;;;;;;;15.85;93.29;100421.08;123712;1099;104299;-76
2023/05/26 00:03:39;;;;;;;20.63;12.77;;;;;;;15.84;92.92;100420.20;123785;1098;104341;-76
2023/05/26 00:06:10;;;;;;;20.93;12.50;;;;;;;15.83;93.04;100425.48;123639;1099;104342;-75
2023/05/26 00:08:38;;;;;;;24.90;14.50;;;;;;;15.85;92.77;100413.14;123655;1099;104342;-76
2023/05/26 00:11:07;;;;;;;20.37;11.90;;;;;;;15.86;93.47;100415.81;123571;1099;104364;-76
2023/05/26 00:13:35;;;;;;;18.40;11.00;;;;;;;15.86;93.40;100417.58;123621;1099;104277;-76
2023/05/26 00:16:04;;;;;;;19.30;11.37;;;;;;;15.86;93.46;100422.87;123681;1099;104197;-76
2023/05/26 00:18:33;;;;;;;19.20;11.60;;;;;;;15.85;92.82;100424.64;123598;1099;104355;-76
2023/05/26 00:21:01;;;;;;;20.03;11.80;;;;;;;15.85;93.67;100424.64;123585;1099;104451;-77
2023/05/26 00:23:30;;;;;;;20.27;11.80;;;;;;;15.85;92.69;100432.58;123542;1099;104415;-76
2023/05/26 00:25:59;;;;;;;21.07;12.43;;;;;;;15.85;93.63;100426.38;123703;1099;104322;-77
2023/05/26 00:28:27;;;;;;;25.05;13.30;;;;;;;15.85;93.77;100424.64;123651;1099;104341;-76
2023/05/26 00:30:56;;;;;;;20.60;12.75;;;;;;;15.86;93.65;100422.87;123653;1099;104271;-76
2023/05/26 00:33:25;;;;;;;22.37;12.87;;;;;;;15.86;93.30;100426.39;123539;1099;104293;-77
2023/05/26 00:35:53;;;;;;;20.43;12.80;;;;;;;15.88;93.02;100426.41;123890;1099;104392;-76
2023/05/26 00:38:22;;;;;;;21.53;12.47;;;;;;;15.88;93.62;100422.03;123758;1099;104242;-76
2023/05/26 00:40:50;;;;;;;20.27;12.73;;;;;;;15.91;93.94;100416.78;123846;1099;104277;-76
2023/05/26 00:43:19;;;;;;;20.20;12.87;;;;;;;15.93;94.15;100415.03;123671;1098;104338;-77
2023/05/26 00:45:48;;;;;;;19.77;12.30;;;;;;;15.94;94.05;100410.61;123685;1099;104357;-76
2023/05/26 00:48:17;;;;;;;19.87;12.07;;;;;;;15.94;94.24;100411.52;123655;1099;104332;-75
2023/05/26 00:50:45;;;;;;;19.20;11.83;;;;;;;15.92;93.70;100405.30;123663;1099;103390;-76
2023/05/26 00:53:17;;;;;;;18.23;10.67;;;;;;;15.91;94.16;100403.55;123674;1099;104288;-76
2023/05/26 00:55:50;;;;;;;21.00;10.50;;;;;;;15.90;93.40;100403.53;123622;1099;104357;-76
2023/05/26 00:58:19;;;;;;;20.25;10.38;;;;;;;15.88;94.18;100405.25;123538;1099;104229;-78
2023/05/26 01:00:48;;;;;;;22.37;10.00;;;;;;;15.86;93.26;100404.34;123583;1099;107053;-77
2023/05/26 01:03:18;;;;;;;16.37;10.73;;;;;;;15.87;93.40;100398.20;123566;1099;104268;-77
2023/05/26 01:05:47;;;;;;;17.40;10.30;;;;;;;15.87;93.72;100393.78;123620;1099;104267;-77
2023/05/26 01:08:15;;;;;;;16.87;9.17;;;;;;;15.87;94.14;100399.08;123607;1099;104236;-76
2023/05/26 01:10:44;;;;;;;21.93;9.60;;;;;;;15.84;93.31;100393.75;123618;1099;104345;-77
2023/05/26 01:13:17;;;;;;;16.67;9.80;;;;;;;15.85;93.54;100397.27;123181;1100;104399;-77
2023/05/26 01:15:50;;;;;;;17.47;9.50;;;;;;;15.80;93.59;100398.12;123622;1098;104322;-76
2023/05/26 01:18:25;;;;;;;16.95;9.45;;;;;;;15.77;93.37;100398.08;123507;1098;104268;-76
2023/05/26 01:20:57;;;;;;;18.63;9.90;;;;;;;15.74;93.83;100403.30;123622;1099;104325;-77
2023/05/26 01:23:48;;;;;;;16.20;9.10;;;;;;;15.73;93.72;100397.98;123805;1099;104785;-77
2023/05/26 01:26:21;;;;;;;17.10;9.25;;;;;;;15.73;93.97;100408.56;123188;1100;104488;-77
2023/05/26 01:28:55;;;;;;;16.10;10.00;;;;;;;15.72;94.34;100414.72;123848;1098;104246;-78
2023/05/26 01:31:24;;;;;;;20.43;9.90;;;;;;;15.69;94.07;100410.30;123531;1099;110384;-77
2023/05/26 01:33:52;;;;;;;17.10;10.37;;;;;;;15.68;94.45;100402.34;123593;1099;104214;-75
2023/05/26 01:36:21;;;;;;;19.50;10.40;;;;;;;15.65;94.50;100405.82;123752;1099;104215;-76
2023/05/26 01:38:50;;;;;;;18.50;10.37;;;;;;;15.63;94.51;100402.27;123679;1099;104372;-76
2023/05/26 01:41:24;;;;;;;16.43;10.07;;;;;;;15.62;93.52;100398.72;123317;1099;104291;-75
2023/05/26 01:44:01;;;;;;;17.05;10.15;;;;;;;15.59;94.32;100401.33;123794;1099;104273;-77
2023/05/26 01:46:38;;;;;;;18.07;10.00;;;;;;;15.58;94.58;100403.95;123756;1099;104243;-76
2023/05/26 01:49:10;;;;;;;18.27;10.33;;;;;;;15.55;94.57;100407.46;123667;1099;104311;-76
2023/05/26 01:51:42;;;;;;;17.50;10.40;;;;;;;15.52;93.85;100402.13;123900;1098;108237;-77
2023/05/26 01:54:16;;;;;;;18.57;10.43;;;;;;;15.50;94.64;100417.06;123643;1099;104256;-77
2023/05/26 01:56:46;;;;;;;15.95;9.60;;;;;;;15.47;94.45;100414.38;123526;1099;104389;-77
2023/05/26 01:59:16;;;;;;;18.93;10.53;;;;;;;15.45;94.44;100410.83;123352;1099;104337;-77
2023/05/26 02:01:45;;;;;;;18.60;9.97;;;;;;;15.42;94.69;100406.37;123597;1099;104351;-77
2023/05/26 02:04:14;;;;;;;18.20;9.90;;;;;;;15.39;94.14;100401.05;123738;1099;104384;-77
2023/05/26 02:06:42;;;;;;;18.70;9.80;;;;;;;15.36;95.00;100406.28;123770;1099;104344;-77
2023/05/26 02:09:11;;;;;;;17.60;10.90;;;;;;;15.34;94.07;100402.73;123807;1099;104331;-77
2023/05/26 02:11:42;;;;;;;19.10;10.57;;;;;;;15.32;94.50;100388.63;123885;1098;104279;-77
2023/05/26 02:14:11;;;;;;;17.60;10.00;;;;;;;15.33;94.21;100395.66;123947;1099;104274;-77
2023/05/26 02:16:39;;;;;;;19.07;10.63;;;;;;;15.33;94.11;100390.38;123856;1099;104246;-78
2023/05/26 02:19:08;;;;;;;18.60;9.77;;;;;;;15.31;94.91;100392.13;123875;1099;104329;-76
2023/05/26 02:21:37;;;;;;;17.73;10.37;;;;;;;15.28;94.23;100394.72;123764;1099;104277;-77
2023/05/26 02:24:06;;;;;;;15.37;9.93;;;;;;;15.26;94.19;100404.39;123609;1099;104351;-76
2023/05/26 02:26:35;;;;;;;18.63;10.40;;;;;;;15.25;94.23;100399.95;123631;1099;104239;-77
2023/05/26 02:29:03;;;;;;;17.07;9.90;;;;;;;15.24;94.32;100398.20;123605;1099;104268;-76
2023/05/26 02:31:33;;;;;;;20.00;10.63;;;;;;;15.24;95.29;100400.84;123668;1098;104475;-77
2023/05/26 02:34:04;;;;;;;17.60;10.30;;;;;;;15.24;94.77;100395.56;123619;1099;104345;-76
2023/05/26 02:36:33;;;;;;;19.20;10.67;;;;;;;15.25;94.70;100398.22;123621;1099;104319;-76
2023/05/26 02:39:01;;;;;;;19.27;11.40;;;;;;;15.29;94.99;100401.80;123631;1099;104386;-76
2023/05/26 02:41:30;;;;;;;18.80;10.90;;;;;;;15.31;95.61;100407.10;123625;1098;104437;-77
2023/05/26 02:43:58;;;;;;;17.60;10.25;;;;;;;15.32;95.11;100411.50;123579;1099;104331;-76
2023/05/26 02:46:27;;;;;;;19.90;10.65;;;;;;;15.29;94.78;100412.37;123604;1099;104261;-76
2023/05/26 02:48:56;;;;;;;17.40;10.10;;;;;;;15.27;94.84;100412.34;123663;1099;104344;-77
2023/05/26 02:51:26;;;;;;;18.23;10.30;;;;;;;15.25;94.55;100407.89;123613;1099;104294;-78
2023/05/26 02:53:55;;;;;;;17.27;10.77;;;;;;;15.23;95.39;100415.80;123292;1099;104403;-76
2023/05/26 02:56:24;;;;;;;16.87;9.97;;;;;;;15.23;94.80;100407.86;123418;1099;104399;-75
2023/05/26 02:58:52;;;;;;;17.50;10.43;;;;;;;15.23;95.23;100405.22;123307;1099;104328;-75
2023/05/26 03:01:21;;;;;;;18.70;10.43;;;;;;;15.22;94.86;100397.27;123562;1099;104252;-77
2023/05/26 03:03:50;;;;;;;19.87;10.40;;;;;;;15.22;95.42;100407.84;123639;1098;104341;-77
2023/05/26 03:06:19;;;;;;;18.73;10.97;;;;;;;15.22;95.93;100407.84;123496;1099;104406;-76
2023/05/26 03:08:47;;;;;;;18.63;11.23;;;;;;;15.21;95.93;100406.09;123876;1099;104241;-77
2023/05/26 03:11:16;;;;;;;20.37;11.03;;;;;;;15.20;95.85;100402.53;123931;1098;104270;-77
2023/05/26 03:13:46;;;;;;;19.00;11.20;;;;;;;15.19;95.95;100402.50;123807;1099;104258;-75
2023/05/26 03:16:14;;;;;;;21.00;10.60;;;;;;;15.18;95.48;100408.68;123660;1099;104421;-77
2023/05/26 03:18:43;;;;;;;18.73;10.47;;;;;;;15.18;96.09;100406.03;123789;1099;104338;-77
2023/05/26 03:21:11;;;;;;;19.23;11.33;;;;;;;15.18;96.24;100401.62;123611;1099;104325;-78
2023/05/26 03:23:40;;;;;;;21.80;11.23;;;;;;;15.20;95.47;100399.01;123597;1099;110817;-76
2023/05/26 03:26:10;;;;;;;20.33;11.17;;;;;;;15.20;96.31;100407.81;123250;1099;104389;-77
2023/05/26 03:28:39;;;;;;;18.70;10.50;;;;;;;15.22;95.88;100414.04;123736;1099;104311;-76
2023/05/26 03:31:08;;;;;;;18.57;11.20;;;;;;;15.24;95.86;100414.94;123632;1099;104245;-77
2023/05/26 03:33:36;;;;;;;23.40;11.53;;;;;;;15.24;95.95;100417.58;123643;1099;104405;-76
2023/05/26 03:36:06;;;;;;;17.20;10.23;;;;;;;15.26;96.10;100417.61;123738;1099;104270;-76
2023/05/26 03:38:35;;;;;;;21.23;11.07;;;;;;;15.30;97.21;100418.53;123589;1099;104399;-75
2023/05/26 03:41:03;;;;;;;20.27;11.67;;;;;;;15.33;96.86;100416.81;123413;1099;104296;-76
2023/05/26 03:43:33;;;;;;;18.27;11.07;;;;;;;15.38;96.42;100415.15;123372;1099;104421;-76
2023/05/26 03:46:02;;;;;;;19.93;10.63;;;;;;;15.47;96.27;100419.66;123871;1099;104191;-75
2023/05/26 03:48:30;;;;;;;18.53;11.50;;;;;;;15.57;97.16;100418.06;123593;1099;104309;-76
2023/05/26 03:50:59;;;;;;;15.57;9.90;;;;;;;15.66;97.32;100420.83;123685;1099;104326;-75
2023/05/26 03:53:28;;;;;;;17.43;10.93;;;;;;;15.76;96.71;100416.55;123736;1099;104378;-76
2023/05/26 03:55:57;;;;;;;18.77;11.03;;;;;;;15.84;97.06;100417.56;123737;1099;104265;-75
2023/05/26 03:58:25;;;;;;;19.05;10.05;;;;;;;15.94;96.77;100418.55;123883;1099;104380;-77
2023/05/26 04:00:54;;;;;;;16.53;9.43;;;;;;;16.02;97.65;100422.20;123822;1099;104338;-74
2023/05/26 04:03:23;;;;;;;17.13;9.70;;;;;;;16.08;97.30;100416.98;123583;1099;104322;-76
2023/05/26 04:05:52;;;;;;;16.90;9.87;;;;;;;16.14;96.90;100422.36;123673;1099;104281;-75
2023/05/26 04:08:21;;;;;;;18.13;9.73;;;;;;;16.20;96.75;100420.64;123597;1098;104354;-74
2023/05/26 04:10:49;;;;;;;18.33;10.47;;;;;;;16.26;97.22;100415.41;123570;1099;104313;-75
2023/05/26 04:13:18;;;;;;;16.97;9.70;;;;;;;16.28;96.55;100417.22;123336;1099;104338;-76
2023/05/26 04:15:46;;;;;;;16.20;9.90;;;;;;;16.31;96.82;100427.84;123447;1099;104328;-77
2023/05/26 04:18:15;;;;;;;16.63;9.90;;;;;;;16.33;97.31;100427.83;123737;1099;104254;-76
2023/05/26 04:20:43;;;;;;;17.10;9.93;;;;;;;16.35;96.73;100428.76;123550;1099;104376;-76
2023/05/26 04:23:12;;;;;;;20.30;10.50;;;;;;;16.40;96.95;100427.03;123532;1098;104268;-76
2023/05/26 04:25:40;;;;;;;16.13;9.50;;;;;;;16.45;96.55;100437.68;123555;1098;104248;-75
2023/05/26 04:28:28;;;;;;;18.70;9.60;;;;;;;16.50;96.65;100444.81;123614;1098;104238;-75
2023/05/26 04:31:03;;;;;;;20.97;10.30;;;;;;;16.54;96.40;100436.01;123395;1099;104316;-75
2023/05/26 04:33:59;;;;;;;18.90;10.50;;;;;;;16.56;96.70;100445.73;123639;1099;104249;-76
2023/05/26 04:36:50;;;;;;;16.07;8.80;;;;;;;16.58;97.07;100446.63;123537;1099;104507;-76
2023/05/26 04:39:19;;;;;;;16.47;9.50;;;;;;;16.63;96.71;100444.94;123574;1099;104258;-76
2023/05/26 04:41:48;;;;;;;17.10;10.47;;;;;;;16.69;96.60;100447.66;123691;1099;104406;-78
2023/05/26 04:44:18;;;;;;;17.10;9.37;;;;;;;16.73;96.40;100445.91;124039;1099;104382;-78
2023/05/26 04:46:47;;;;;;;18.10;9.20;;;;;;;16.76;96.44;100452.12;124013;1099;104386;-78
2023/05/26 04:49:16;;;;;;;18.27;9.90;;;;;;;16.83;96.78;100451.31;124062;1099;102780;-76
2023/05/26 04:51:44;;;;;;;16.43;9.40;;;;;;;16.88;96.61;100452.27;123778;1099;104239;-75
2023/05/26 04:54:13;;;;;;;21.63;10.53;;;;;;;16.97;96.64;100446.17;124017;1099;104236;-75
2023/05/26 04:56:42;;;;;;;17.47;10.23;;;;;;;17.07;96.36;100448.01;123992;1099;104262;-75
2023/05/26 04:59:11;;;;;;;16.27;9.57;;;;;;;17.14;96.25;100446.32;123801;1099;104312;-76
2023/05/26 05:01:42;;;;;;;18.40;10.03;;;;;;;17.21;96.40;100450.77;123752;1099;104271;-75
2023/05/26 05:04:45;;;;;;;15.43;9.00;;;;;;;17.31;96.55;100453.50;124123;1099;104268;-79
2023/05/26 05:07:14;;;;;;;18.33;9.77;;;;;;;17.38;95.69;100450.02;124159;1099;104268;-78
2023/05/26 05:09:43;;;;;;;16.43;8.73;;;;;;;17.43;96.12;100445.62;124520;1098;104246;-80
2023/05/26 05:12:12;;;;;;;16.37;8.50;;;;;;;17.47;96.02;100458.05;123916;1099;104076;-74
2023/05/26 05:14:41;;;;;;;15.90;8.60;;;;;;;17.51;95.72;100454.52;124118;1099;104230;-76
2023/05/26 05:17:11;;;;;;;15.60;9.13;;;;;;;17.60;95.52;100451.92;124727;1099;104402;-74
2023/05/26 05:19:40;;;;;;;18.40;8.73;;;;;;;17.71;95.49;100453.77;124153;1099;104178;-77
2023/05/26 05:22:09;;;;;;;16.80;8.77;;;;;;;17.81;95.19;100457.34;124328;1099;104166;-80
2023/05/26 05:24:37;;;;;;;15.63;8.90;;;;;;;17.87;94.66;100460.03;124004;1099;104251;-74
2023/05/26 05:27:07;;;;;;;17.50;9.13;;;;;;;17.89;94.55;100456.55;124467;1099;104245;-79
2023/05/26 05:29:36;;;;;;;14.97;8.07;;;;;;;17.99;94.36;100456.60;124043;1099;104264;-74
2023/05/26 05:32:05;;;;;;;13.73;8.20;;;;;;;18.06;94.74;100455.73;124342;1099;104341;-75
2023/05/26 05:34:42;;;;;;;17.23;7.87;;;;;;;18.15;93.89;100455.77;124088;1099;104328;-80
2023/05/26 05:37:11;;;;;;;16.20;8.00;;;;;;;18.20;93.65;100453.13;123976;1099;104373;-73
2023/05/26 05:39:40;;;;;;;17.23;8.20;;;;;;;18.21;93.09;100450.48;124510;1099;104329;-77
2023/05/26 05:42:10;;;;;;;16.80;7.80;;;;;;;18.20;93.39;100451.38;124646;1099;104188;-74
2023/05/26 05:44:39;;;;;;;16.17;7.40;;;;;;;18.23;93.06;100451.39;124109;1098;104277;-73
2023/05/26 05:47:07;;;;;;;15.07;7.53;;;;;;;18.28;92.47;100449.63;124539;1099;104296;-77
2023/05/26 05:49:44;;;;;;;16.37;8.10;;;;;;;18.33;92.66;100447.87;125124;1099;104198;-75
2023/05/26 05:52:13;;;;;;;15.53;7.63;;;;;;;18.40;91.31;100448.80;124843;1099;104249;-74
2023/05/26 05:54:42;;;;;;;12.67;6.70;;;;;;;18.46;91.19;100445.25;125340;1099;104176;-75
2023/05/26 05:57:12;;;;;;;11.97;7.07;;;;;;;18.55;91.25;100449.70;125036;1099;104200;-76
2023/05/26 05:59:41;;;;;;;14.37;7.50;;;;;;;18.64;90.52;100453.27;124792;1098;104364;-74
2023/05/26 06:02:19;;;;;;;14.30;6.67;;;;;;;18.76;90.72;100449.75;125394;1099;102271;-76
2023/05/26 06:04:50;;;;;;;14.97;7.17;;;;;;;18.85;90.02;100449.80;125397;1099;103095;-77
2023/05/26 06:07:21;;;;;;;13.23;6.90;;;;;;;18.95;89.99;100460.44;124956;1099;104256;-74
2023/05/26 06:09:53;;;;;;;17.43;7.70;;;;;;;18.99;89.63;100457.75;124698;1099;104405;-76
2023/05/26 06:12:26;;;;;;;11.23;6.83;;;;;;;19.07;89.18;100451.56;124807;1099;102313;-75
2023/05/26 06:14:55;;;;;;;13.53;7.17;;;;;;;19.15;89.14;100456.00;124856;1099;104747;-76
2023/05/26 06:17:27;;;;;;;14.97;7.37;;;;;;;19.29;88.67;100453.34;124726;1099;104180;-77
2023/05/26 06:19:57;;;;;;;14.43;7.43;;;;;;;19.42;88.67;100459.53;124333;1099;104166;-77
2023/05/26 06:22:26;;;;;;;14.00;6.83;;;;;;;19.55;88.54;100457.72;124511;1099;104223;-78
2023/05/26 06:24:55;;;;;;;15.80;7.70;;;;;;;19.70;87.80;100455.03;124849;1099;104309;-73
2023/05/26 06:27:50;;;;;;;14.27;7.87;;;;;;;19.85;87.62;100461.23;124486;1102;104373;-74
2023/05/26 06:30:19;;;;;;;11.53;6.80;;;;;;;19.98;88.02;100462.97;125070;1099;103577;-73
2023/05/26 06:32:55;;;;;;;16.35;8.10;;;;;;;20.06;85.84;100461.16;124475;1098;104236;-78
2023/05/26 06:35:25;;;;;;;14.53;7.03;;;;;;;20.10;85.70;100459.36;124365;1099;104258;-76
2023/05/26 06:37:56;;;;;;;15.35;7.30;;;;;;;20.19;85.59;100451.33;124374;1099;104172;-79
2023/05/26 06:40:29;;;;;;;14.00;7.00;;;;;;;20.36;86.22;100456.58;124568;1100;104293;-82
2023/05/26 06:42:58;;;;;;;16.30;6.93;;;;;;;20.44;85.78;100460.11;124956;1099;103650;-77
2023/05/26 06:45:27;;;;;;;17.13;7.43;;;;;;;20.53;86.08;100474.27;124620;1099;103744;-85
2023/05/26 06:47:57;;;;;;;12.80;6.50;;;;;;;20.60;83.55;100487.55;124688;1102;104367;-81
2023/05/26 06:50:30;;;;;;;13.95;7.00;;;;;;;20.63;83.37;100478.63;124564;1099;104162;-74
2023/05/26 06:53:00;;;;;;;13.83;7.30;;;;;;;20.74;83.39;100479.51;124599;1100;104201;-79
2023/05/26 06:55:29;;;;;;;15.33;7.20;;;;;;;20.82;83.05;100483.00;125045;1099;102538;-77
2023/05/26 06:57:58;;;;;;;15.13;7.50;;;;;;;20.94;83.43;100481.14;124944;1099;104230;-77
2023/05/26 07:00:30;;;;;;;12.97;6.87;;;;;;;21.09;84.20;100475.69;124992;1099;104271;-77
2023/05/26 07:05:48;;;;;;;14.50;6.73;;;;;;;21.33;82.68;100474.61;124486;1099;104313;-78
2023/05/26 07:08:17;;;;;;;12.10;6.57;;;;;;;21.36;82.19;100468.34;124789;1099;104229;-75
2023/05/26 07:10:47;;;;;;;14.17;7.27;;;;;;;21.34;80.96;100475.48;124380;1099;104201;-78
2023/05/26 07:13:19;;;;;;;12.90;6.83;;;;;;;21.39;82.39;100483.45;124510;1099;102869;-75
2023/05/26 07:15:48;;;;;;;15.10;7.20;;;;;;;21.43;81.12;100486.08;124862;1099;104380;-76
2023/05/26 07:18:18;;;;;;;15.00;7.27;;;;;;;21.48;80.99;100484.23;124238;1099;109094;-73
2023/05/26 07:20:50;;;;;;;15.63;6.97;;;;;;;21.54;79.82;100476.20;124562;1099;104272;-78
2023/05/26 07:23:22;;;;;;;12.13;6.80;;;;;;;21.66;80.71;100479.64;124513;1099;104242;-76
2023/05/26 07:25:57;;;;;;;13.50;6.47;;;;;;;21.79;79.81;100472.41;124549;1099;104309;-72
2023/05/26 07:28:30;;;;;;;14.10;7.17;;;;;;;21.89;79.47;100474.05;124187;1102;119133;-73
2023/05/26 07:31:04;;;;;;;16.53;6.70;;;;;;;21.96;78.40;100475.77;124776;1099;104294;-78
2023/05/26 07:33:37;;;;;;;14.97;7.07;;;;;;;22.02;77.59;100481.04;125365;1102;104238;-73
2023/05/26 07:36:07;;;;;;;13.60;6.53;;;;;;;22.13;77.76;100474.66;124620;1098;104638;-73
2023/05/26 07:38:42;;;;;;;13.70;6.60;;;;;;;22.21;77.40;100486.16;124181;1099;104791;-77
2023/05/26 07:41:13;;;;;;;15.07;6.47;;;;;;;22.36;77.32;100477.98;124869;1099;103481;-77
2023/05/26 07:43:49;;;;;;;16.67;7.17;;;;;;;22.53;76.64;100477.77;125158;1099;102371;-74
2023/05/26 07:46:22;;;;;;;17.40;7.53;;;;;;;22.71;76.67;100478.39;124931;1099;104185;-76
2023/05/26 07:48:53;;;;;;;17.90;7.00;;;;;;;22.83;76.64;100478.22;124818;1099;104290;-73
2023/05/26 07:51:23;;;;;;;11.20;5.77;;;;;;;22.97;75.72;100492.25;124934;1099;102559;-79
2023/05/26 07:54:00;;;;;;;13.38;5.90;;;;;;;22.97;73.90;100489.58;124797;1099;104198;-74
2023/05/26 07:56:30;;;;;;;14.13;6.23;;;;;;;23.06;74.01;100488.56;124422;1102;104302;-81
2023/05/26 07:58:59;;;;;;;10.83;5.20;;;;;;;23.19;73.63;100480.33;124889;1099;104238;-78
2023/05/26 08:01:29;;;;;;;13.27;5.70;;;;;;;23.37;72.90;100477.34;125022;1099;104159;-74
2023/05/26 08:04:11;;;;;;;13.37;6.20;;;;;;;23.57;72.77;100479.67;124893;1099;102541;-77
2023/05/26 08:06:49;;;;;;;15.40;6.27;;;;;;;23.78;73.50;100483.76;124824;1099;103018;-82
2023/05/26 08:09:19;;;;;;;14.20;6.27;;;;;;;23.95;72.55;100475.42;124857;1099;107033;-78
2023/05/26 08:11:48;;;;;;;11.27;5.70;;;;;;;24.04;70.93;100477.02;124785;1099;104217;-80
2023/05/26 08:14:27;;;;;;;11.80;5.90;;;;;;;24.05;70.44;100482.34;124808;1099;104156;-80
2023/05/26 08:16:55;;;;;;;14.40;5.93;;;;;;;24.11;69.49;100478.67;124855;1098;102742;-77
2023/05/26 08:19:25;;;;;;;10.97;5.77;;;;;;;24.17;69.56;100473.18;124473;1099;104259;-78
2023/05/26 08:21:55;;;;;;;10.10;5.23;;;;;;;24.32;68.72;100482.68;124914;1099;104348;-77
2023/05/26 08:24:27;;;;;;;11.07;5.57;;;;;;;24.34;68.60;100483.55;124885;1099;104679;-75
2023/05/26 08:26:57;;;;;;;11.05;5.10;;;;;;;24.35;67.62;100481.74;124877;1099;104216;-74
2023/05/26 08:29:27;;;;;;;12.13;5.70;;;;;;;24.32;65.68;100477.31;124624;1099;104258;-79
2023/05/26 08:32:10;;;;;;;11.00;5.23;;;;;;;24.39;67.03;100481.64;124963;1098;102526;-79
2023/05/26 08:34:39;;;;;;;8.50;4.90;;;;;;;24.53;66.88;100477.79;124856;1099;104377;-74
2023/05/26 08:37:11;;;;;;;11.73;5.33;;;;;;;24.55;64.60;100478.63;124608;1099;103184;-73
2023/05/26 08:39:41;;;;;;;9.50;4.70;;;;;;;24.40;63.18;100472.70;125011;1099;104313;-75
2023/05/26 08:42:15;;;;;;;10.90;4.93;;;;;;;24.43;63.89;100479.77;125078;1099;104246;-77
2023/05/26 08:44:45;;;;;;;10.33;5.30;;;;;;;24.49;63.40;100476.95;125008;1099;102649;-75
2023/05/26 08:47:19;;;;;;;11.93;4.80;;;;;;;24.61;63.40;100481.20;124605;1099;104176;-76
2023/05/26 08:49:52;;;;;;;;;;;;;;;24.66;62.35;100457.83;124572;1099;104394;-73
2023/05/26 08:52:22;;;;;;;14.83;5.67;;;;;;;24.86;63.03;100459.17;124876;1098;102995;-76
2023/05/26 08:54:52;;;;;;;7.93;4.97;;;;;;;24.91;62.57;100462.61;124735;1099;104259;-77
2023/05/26 08:57:22;;;;;;;9.17;5.10;;;;;;;25.00;61.56;100457.02;124458;1099;104290;-77
2023/05/26 08:59:53;;;;;;;9.45;4.90;;;;;;;24.99;59.46;100460.63;124866;1099;104133;-78
2023/05/26 09:02:28;;;;;;;8.43;4.50;;;;;;;25.03;60.32;100451.58;125116;1099;104240;-76
2023/05/26 09:04:56;;;;;;;12.10;5.35;;;;;;;25.18;60.50;100461.06;124827;1099;104575;-78
2023/05/26 09:07:27;;;;;;;11.43;5.17;;;;;;;25.28;60.13;100453.65;124820;1099;103469;-82
2023/05/26 09:10:20;;;;;;;15.60;5.00;;;;;;;25.28;58.55;100446.50;124263;1099;104348;-75
2023/05/26 09:12:50;;;;;;;8.33;4.87;;;;;;;25.45;59.72;100442.50;124808;1099;102540;-76
2023/05/26 09:15:22;;;;;;;10.88;4.80;;;;;;;25.44;58.72;100444.28;124897;1099;104235;-75
2023/05/26 09:18:06;;;;;;;7.83;4.30;;;;;;;25.34;57.22;100429.35;125013;1099;104281;-73
2023/05/26 09:20:41;;;;;;;10.07;4.10;;;;;;;25.28;57.01;100438.44;124961;1099;104207;-78
2023/05/26 09:23:11;;;;;;;8.07;4.20;;;;;;;25.29;56.96;100431.25;125042;1099;104364;-82
2023/05/26 09:25:41;;;;;;;8.93;4.27;;;;;;;25.37;56.37;100431.95;124506;1099;102140;-76
2023/05/26 09:28:12;;;;;;;9.07;4.70;;;;;;;25.38;55.54;100424.77;124516;1099;104229;-78
2023/05/26 09:30:42;;;;;;;7.10;4.60;;;;;;;25.39;56.19;100418.48;124964;1099;104274;-80
2023/05/26 09:33:13;;;;;;;8.60;4.70;;;;;;;25.39;54.42;100430.10;124529;1099;104271;-76
2023/05/26 09:35:44;;;;;;;10.80;4.50;;;;;;;25.34;55.32;100431.13;124863;1099;104155;-82
2023/05/26 09:38:14;;;;;;;7.37;4.40;;;;;;;25.34;55.43;100426.66;124823;1099;104345;-81
2023/05/26 09:40:45;;;;;;;8.60;4.37;;;;;;;25.42;54.57;100434.52;125062;1099;104299;-77
2023/05/26 09:43:17;;;;;;;8.70;4.17;;;;;;;25.43;54.72;100414.77;124823;1099;104242;-77
2023/05/26 09:45:48;;;;;;;7.53;4.00;;;;;;;25.52;55.10;100416.34;125044;1099;104262;-80
2023/05/26 09:48:22;;;;;;;8.97;4.33;;;;;;;25.63;55.34;100420.50;124715;1099;103650;-77
2023/05/26 09:50:52;;;;;;;8.27;4.50;;;;;;;25.73;54.45;100415.75;125011;1098;104205;-78
2023/05/26 09:53:23;;;;;;;7.50;4.10;;;;;;;25.77;53.12;100414.75;124851;1099;104309;-77
2023/05/26 09:55:58;;;;;;;7.57;4.43;;;;;;;25.74;52.38;100411.23;116503;1099;10001627;-76
2023/05/26 09:58:27;;;;;;;8.83;4.33;;;;;;;25.65;52.95;100401.66;125152;1099;104072;-79
2023/05/26 10:00:58;;;;;;;8.87;3.93;;;;;;;25.65;52.50;100396.28;116413;1099;10001565;-76
2023/05/26 10:03:30;;;;;;;6.57;3.70;;;;;;;25.61;52.17;100395.47;124706;1099;104159;-78
2023/05/26 10:06:01;;;;;;;4.83;3.30;;;;;;;25.61;52.10;100400.84;124810;1099;102611;-78
2023/05/26 10:08:40;;;;;;;7.20;3.80;;;;;;;25.67;51.75;100382.80;124853;1099;103492;-80
2023/05/26 10:11:09;;;;;;;8.17;3.77;;;;;;;25.73;51.77;100383.50;125035;1099;104376;-81
2023/05/26 10:13:38;;;;;;;6.63;3.60;;;;;;;25.67;50.75;100372.92;125497;1099;103489;-79
2023/05/26 10:16:09;;;;;;;8.37;3.80;;;;;;;25.77;51.13;100369.06;125519;1099;104220;-79
2023/05/26 10:18:47;;;;;;;6.53;3.77;;;;;;;25.86;50.31;100356.27;125017;1099;102232;-73
2023/05/26 10:21:23;;;;;;;6.53;3.80;;;;;;;25.84;50.62;100349.12;125160;1099;104210;-79
2023/05/26 10:24:13;;;;;;;5.90;3.60;;;;;;;25.98;51.04;100346.05;125246;1099;104239;-76
2023/05/26 10:26:52;;;;;;;6.80;3.80;;;;;;;26.01;49.29;100348.64;125080;1099;103345;-76
2023/05/26 10:29:32;;;;;;;5.63;3.37;;;;;;;25.99;48.23;100339.75;124987;1099;104325;-75
2023/05/26 10:32:01;;;;;;;4.83;3.37;;;;;;;26.00;48.13;100343.31;125043;1099;102521;-77
2023/05/26 10:34:44;;;;;;;6.70;3.53;;;;;;;26.08;48.59;100335.87;125059;1099;104431;-76
2023/05/26 10:37:18;;;;;;;5.70;3.50;;;;;;;26.16;47.79;100328.48;124808;1099;104307;-78
2023/05/26 10:39:47;;;;;;;9.17;4.00;;;;;;;26.15;47.99;100329.39;125132;1099;104201;-83
2023/05/26 10:42:20;;;;;;;8.07;3.90;;;;;;;26.17;46.40;100324.84;124974;1099;104221;-81
2023/05/26 10:44:52;;;;;;;4.60;3.63;;;;;;;25.99;46.26;100320.94;125093;1099;104339;-75
2023/05/26 10:47:22;;;;;;;6.43;3.47;;;;;;;26.05;47.47;100324.35;124972;1099;104235;-76
2023/05/26 10:49:58;;;;;;;8.20;3.63;;;;;;;26.09;47.04;100316.14;124547;1099;104236;-75
2023/05/26 10:52:27;;;;;;;5.33;3.33;;;;;;;26.11;46.86;100319.66;124837;1099;104353;-76
2023/05/26 10:55:12;;;;;;;7.03;3.40;;;;;;;26.16;46.18;100306.06;124987;1100;102604;-77
2023/05/26 10:57:43;;;;;;;7.93;3.77;;;;;;;26.23;46.80;100314.84;125275;1099;104212;-77
2023/05/26 11:00:28;;;;;;;6.70;3.60;;;;;;;26.27;45.87;100312.00;125044;1099;104177;-76
2023/05/26 11:02:57;;;;;;;4.57;3.30;;;;;;;26.28;45.29;100302.98;124866;1099;104384;-78
2023/05/26 11:05:34;;;;;;;4.67;3.40;;;;;;;26.33;45.12;100305.52;124507;1099;104197;-76
2023/05/26 11:08:22;;;;;;;5.20;3.63;;;;;;;26.39;45.50;100299.07;124526;1099;104159;-76
2023/05/26 11:11:09;;;;;;;5.77;3.40;;;;;;;26.49;44.60;100303.20;124607;1099;103755;-74
2023/05/26 11:13:43;;;;;;;6.97;3.90;;;;;;;26.48;43.97;100310.40;124724;1099;109605;-77
2023/05/26 11:16:19;;;;;;;5.03;3.47;;;;;;;26.44;44.77;100306.04;125104;1099;104216;-78
2023/05/26 11:18:51;;;;;;;6.43;3.70;;;;;;;26.43;44.63;100298.02;124816;1099;104255;-78
2023/05/26 11:21:23;;;;;;;8.33;4.03;;;;;;;26.51;44.33;100302.22;125237;1098;102795;-79
2023/05/26 11:23:54;;;;;;;5.87;3.70;;;;;;;26.55;44.05;100303.89;124912;1099;118500;-83